Moose, WY

11:38 PM MDT on August 30, 2014 (GMT -0600)
Yellowstone | Change Station
CLOSE
Current Station
Airport
Location: Yellowstone,
Elevation: 7835 ft
Nearby Weather Stations

Elev 7835 ft 44.54 °N, 110.42 °W | Updated 42 minutes ago

Thunderstorm
Thunderstorm
40 °F
Feels Like 40 °F
N
0
Wind Variable Wind from North
Gusts 23 mph

Today
High -- | Low -- °F
--% Chance of Precip.
Yesterday
High -- | Low -- °F
Precip. -- in
6:44 AM 8:02 PM
Waxing Crescent, 28% visible
Pressure 29.94 in
Visibility -9999.0 miles
Clouds
Dew Point 38 °F
Humidity 93%
Rainfall 0.64 in
Snow Depth Not available.
UV Not available.
Pollen 8.90 out of 12
Air Quality Not available.
Flu Activity Not available.
METAR KP60 310456Z AUTO 00000KT 04/03 A3010 RMK AO1 SLP136 T00440033

More Conditions Fewer Conditions

Pressure 29.94 in
Visibility -9999.0 miles
Clouds
Dew Point 38 °F
Humidity 93%
Rainfall 0.64 in
Snow Depth Not available.
UV Not available.
Pollen 8.90 out of 12
Air Quality Not available.
Flu Activity Not available.
METAR KP60 310456Z AUTO 00000KT 04/03 A3010 RMK AO1 SLP136 T00440033

More Conditions Fewer Conditions

10-Day Weather Forecast

Almanac

Astronomy

Aug. 30, 2014 Rise Set
Actual Time 6:44 AM MDT 8:02 PM MDT
Civil Twilight 6:14 AM MDT 8:32 PM MDT
Nautical Twilight 5:38 AM MDT 9:07 PM MDT
Astronomical Twilight 5:00 AM MDT 9:45 PM MDT
Moon 11:46 AM MDT (8/30) 10:27 PM MDT (8/30)
Length of Visible Light 14h 17m
Length of Day
13h 17m
Tomorrow will be 2m 52s shorter.
Waxing Crescent, 28% of the Moon is Illuminated
Aug 31
Waxing Crescent
Sep 2
First Quarter
Sep 8
Full
Sep 15
Last Quarter
Sep 24
New

Yesterday's Extremes

State Highs State Lows

Community

WunderPhotos

Upload Photos

1,748,790 photos uploaded!

Nearby

Snow Depth

Station Depth Elevation
Base Camp 0 in 7030 ft
Snake River Station 0 in 6920 ft
Phillips Bench 0 in 8200 ft
Lewis Lake Divide 1 in 7850 ft
Thumb Divide 0 in 7980 ft

Earthquake Activity

City Distance Mag. Time & Date
Driggs, Idaho 6 miles 3.8 2:09 PM MDT
2014-08-30
Minimum magnitude displayed is 2.5.

Coastal Water Temperatures

Place Temperature
No Stations Reporting

Nearby Weather Stations